松山國際航空站 - 塔臺

METAR RCSS 211330Z 10005KT 9999 -DZ FEW010 BKN018 BKN030 23/21 Q1018 NOSIG RMK A3006=

站台狀態:Online
最後更新:2018-11-21 22:00:02